Flight Track Log - Related Links

Times and Time Zones

All times are in EDT time to prevent confusion due to time zone crossing. See the AWE1640 flight status page for this flight to view local times or setup timezone preferences in your user account.

Time Position Orientation Groundspeed Altitude Reporting Facility
EDT Latitude Longitude Course Direction KTS MPH feet Rate Location/Type
Sat 07:56:09 AM 35.1928 -80.9356 72° East 164 189 1,700  Level Atlanta Center
Sat 07:56:58 AM 35.1511 -80.9319 176° South 177 204 3,100 2,073 Climbing Atlanta Center
Sat 07:57:59 AM 35.0994 -80.8731 137° Southeast 273 314 5,500 2,410 Climbing Atlanta Center
Sat 07:58:00 AM 35.1901 -80.5733 29° Northeast  Level FlightAware Approximate
Sat 07:59:00 AM 35.2808 -80.5090 30° Northeast  Level FlightAware Approximate
Sat 07:59:00 AM 35.1011 -80.7714 89° East 323 372 8,000  Level Atlanta Center
Sat 07:59:34 AM 35.1142 -80.7125 75° East 320 368 8,500 1,915 Climbing Atlanta Center
Sat 08:00:00 AM 35.3435 -80.4282 72° East  Level FlightAware Approximate
Sat 08:00:34 AM 35.1619 -80.6319 54° Northeast 343 395 11,000  Level Atlanta Center
Sat 08:01:00 AM 35.3758 -80.3059 72° East  Level FlightAware Approximate
Sat 08:01:34 AM 35.2214 -80.5228 56° Northeast 369 425 12,800  Level Atlanta Center
Sat 08:02:34 AM 35.2931 -80.4000 54° Northeast 390 449 15,500 2,147 Climbing Atlanta Center
Sat 08:04:58 AM 35.4406 -80.1072 58° Northeast 438 504 20,100 1,853 Climbing Washington Center
Sat 08:05:58 AM 35.4817 -79.9614 71° East 443 510 21,800 1,415 Climbing Washington Center
Sat 08:07:01 AM 35.5206 -79.8078 73° East 448 516 23,000 1,289 Climbing Washington Center
Sat 08:07:59 AM 35.5572 -79.6542 74° East 460 529 24,400 1,576 Climbing Washington Center
Sat 08:08:59 AM 35.6000 -79.4953 72° East 474 545 26,100 1,311 Climbing Washington Center
Sat 08:09:58 AM 35.6508 -79.3419 68° East 474 545 27,000 1,091 Climbing Washington Center
Sat 08:11:00 AM 35.7281 -79.2022 56° Northeast 479 551 28,300 1,008 Climbing Washington Center
Sat 08:11:57 AM 35.8458 -79.1050 34° Northeast 484 557 29,000 600 Climbing Washington Center
Sat 08:13:00 AM 35.9650 -79.0206 30° Northeast 484 557 29,500 942 Climbing Washington Center
Sat 08:13:58 AM 36.0844 -78.9281 32° Northeast 489 563 30,900 763 Climbing Washington Center
Sat 08:14:58 AM 36.2017 -78.8431 30° Northeast 494 568 31,000 50 Climbing Washington Center
Sat 08:15:59 AM 36.3317 -78.7453 31° Northeast 494 568 31,000  Level Washington Center
Sat 08:16:58 AM 36.4486 -78.6569 31° Northeast 494 568 31,000  Level Washington Center
Sat 08:17:58 AM 36.5656 -78.5711 31° Northeast 494 568 31,000  Level Washington Center
Sat 08:18:59 AM 36.6803 -78.4822 32° Northeast 489 563 31,000  Level Washington Center
Sat 08:20:00 AM 36.7825 -78.4006 33° Northeast 484 557 31,000  Level Washington Center
Sat 08:21:00 AM 36.8969 -78.3164 30° Northeast 484 557 31,000  Level Washington Center
Sat 08:21:58 AM 37.0117 -78.2242 33° Northeast 489 563 31,000  Level Washington Center
Sat 08:22:59 AM 37.1242 -78.1394 31° Northeast 482 555 31,000  Level Washington Center
Sat 08:24:00 AM 37.2406 -78.0547 30° Northeast 482 555 31,000  Level Washington Center
Sat 08:24:58 AM 37.3550 -77.9669 31° Northeast 482 555 31,000  Level Washington Center
Sat 08:25:58 AM 37.4694 -77.8761 32° Northeast 482 555 31,000  Level Washington Center
Sat 08:26:59 AM 37.5819 -77.7800 34° Northeast 482 555 31,000  Level Washington Center
Sat 08:27:59 AM 37.6919 -77.6833 35° Northeast 482 555 31,000  Level Washington Center
Sat 08:28:57 AM 37.8000 -77.5814 37° Northeast 487 560 31,000  Level Washington Center
Sat 08:29:58 AM 37.9103 -77.4814 36° Northeast 487 560 31,000  Level Washington Center
Sat 08:30:58 AM 38.0203 -77.3814 36° Northeast 482 555 31,000  Level Washington Center
Sat 08:31:59 AM 38.1386 -77.2733 36° Northeast 482 555 31,000  Level Washington Center
Sat 08:32:59 AM 38.2231 -77.1933 37° Northeast 482 555 31,000  Level Washington Center
Sat 08:33:59 AM 38.3539 -77.0744 35° Northeast 480 552 31,000 -202 Level Washington Center
Sat 08:34:58 AM 38.4633 -76.9731 36° Northeast 480 552 30,600 -655 Descending Washington Center
Sat 08:35:58 AM 38.5689 -76.8717 37° Northeast 480 552 29,700 -958 Descending Washington Center
Sat 08:36:57 AM 38.6761 -76.7725 36° Northeast 480 552 28,700 -992 Descending Washington Center
Sat 08:37:59 AM 38.7794 -76.6567 41° Northeast 485 558 27,700 -836 Descending Washington Center
Sat 08:38:59 AM 38.8825 -76.5408 41° Northeast 490 564 27,000 -350 Descending Washington Center
Sat 08:39:59 AM 38.9833 -76.4222 42° Northeast 490 564 27,000  Level Washington Center
Sat 08:41:00 AM 39.0842 -76.3056 42° Northeast 490 564 27,000  Level Washington Center
Sat 08:41:58 AM 39.1869 -76.1861 42° Northeast 490 564 27,000 -50 Level Washington Center
Sat 08:42:59 AM 39.2814 -76.0794 41° Northeast 490 564 26,900 -934 Descending Washington Center
Sat 08:44:00 AM 39.3817 -75.9647 41° Northeast 490 564 25,100 -1,714 Descending Washington Center
Sat 08:44:58 AM 39.4758 -75.8522 43° Northeast 474 545 23,500 -1,627 Descending Washington Center
Sat 08:45:58 AM 39.5656 -75.7397 44° Northeast 467 537 21,900 -1,587 Descending Washington Center
Sat 08:46:59 AM 39.6594 -75.6319 41° Northeast 449 517 20,300 -1,636 Descending Washington Center
Sat 08:47:59 AM 39.7489 -75.5239 43° Northeast 443 510 18,600 -1,736 Descending Washington Center
Sat 08:49:00 AM 39.8342 -75.4211 43° Northeast 426 490 16,800 -1,765 Descending Washington Center
Sat 08:49:58 AM 39.9194 -75.3183 43° Northeast 419 482 15,100 -1,714 Descending Washington Center
Sat 08:50:59 AM 40.0025 -75.2178 43° Northeast 413 475 13,400 -1,636 Descending Washington Center
Sat 08:52:00 AM 40.0815 -75.1018 48° Northeast  Level FlightAware Approximate
Sat 08:52:43 AM 40.1500 -75.0333 48° Northeast 393 452 10,600  Level New York TRACON
Sat 08:53:43 AM 40.2167 -74.9500 44° Northeast 350 403 9,200 -1,400 Descending New York TRACON
Sat 08:54:43 AM 40.3000 -74.8667 37° Northeast 329 379 7,800 -1,368 Descending New York TRACON
Sat 08:55:37 AM 40.3667 -74.8167 30° Northeast 318 366 6,600 -947 Descending New York TRACON
Sat 08:56:37 AM 40.4333 -74.7667 30° Northeast 311 358 6,000 -300 Descending New York TRACON
Sat 08:57:37 AM 40.5000 -74.7000 37° Northeast 311 358 6,000  Level New York TRACON
Sat 08:58:25 AM 40.5667 -74.6500 30° Northeast 309 356 6,000 -118 Level New York TRACON
Sat 08:59:19 AM 40.6333 -74.6000 30° Northeast 313 360 5,800 -500 Descending New York TRACON
Sat 09:00:25 AM 40.7167 -74.5833 North 296 341 5,000 -400 Descending New York TRACON
Sat 09:01:19 AM 40.7833 -74.5333 30° Northeast 308 354 5,000  Level New York TRACON
Sat 09:02:19 AM 40.8667 -74.4667 31° Northeast 309 356 5,000  Level New York TRACON
Sat 09:03:19 AM 40.9333 -74.4000 37° Northeast 316 364 5,000  Level New York TRACON
Sat 09:04:20 AM 40.9500 -74.2833 79° East 311 358 5,000 -250 Level New York TRACON
Sat 09:05:19 AM 40.9333 -74.1833 102° East 299 344 4,500 -584 Descending New York TRACON
Sat 09:06:13 AM 40.8833 -74.1167 135° Southeast 242 278 3,900 -842 Descending New York TRACON
Sat 09:07:13 AM 40.8500 -74.0833 143° Southeast 170 196 2,900 -800 Descending New York TRACON
Sat 09:08:13 AM 40.8000 -74.1000 194° South 149 171 2,300 -600 Descending New York TRACON

Login

Don't have an account? Register now (free) for customized features, flight alerts, and more!